Date,TemperatureHighF,TemperatureAvgF,TemperatureLowF,DewpointHighF,DewpointAvgF,DewpointLowF,HumidityHigh,HumidityAvg,HumidityLow,PressureMaxIn,PressureMinIn,WindSpeedMaxMPH,WindSpeedAvgMPH,GustSpeedMaxMPH,PrecipitationSumIn
2013-1-1,55.7,48.4,39.5,55.4,43.5,31.8,100,84,67,30.26,29.96,15,2,15,0.11
2013-1-2,46.5,38.9,31.5,31.9,29.6,28.0,89,70,51,30.36,30.25,7,1,9,0.00
2013-1-3,45.6,38.8,28.3,33.9,30.2,26.1,93,73,55,30.47,30.34,5,1,8,0.00
2013-1-4,43.3,39.7,34.6,39.0,36.1,31.7,94,87,65,30.54,30.39,6,1,8,0.20
2013-1-5,57.1,44.9,37.0,42.5,39.7,34.5,94,83,56,30.40,30.22,7,1,9,0.03
2013-1-6,60.7,43.7,33.8,35.8,32.8,30.6,95,70,33,30.43,30.30,8,1,10,0.00
2013-1-7,54.7,42.4,28.7,40.1,33.6,26.5,94,73,48,30.33,30.06,12,2,16,0.00
2013-1-8,52.1,49.7,47.0,50.7,47.4,39.7,96,92,70,30.06,29.87,8,1,8,0.01
2013-1-9,58.3,55.3,51.1,55.8,53.3,49.6,97,93,88,30.02,29.81,21,2,21,1.11
2013-1-10,65.8,54.4,45.1,49.8,45.7,42.2,97,74,50,30.02,29.95,20,2,22,0.00
2013-1-11,75.0,59.6,44.0,61.9,52.8,40.9,93,80,57,29.99,29.77,19,2,21,0.00
2013-1-12,75.1,64.6,45.5,67.7,57.9,33.6,96,80,52,29.92,29.61,14,3,19,0.00
2013-1-13,52.5,43.0,36.6,33.6,28.6,23.6,69,57,41,30.20,29.92,13,4,18,0.00
2013-1-14,50.5,40.1,32.1,30.5,26.3,21.9,69,58,41,30.29,30.10,16,2,16,0.00
2013-1-15,41.0,37.5,34.2,33.9,30.8,23.5,92,77,62,30.28,30.13,12,2,15,0.00
2013-1-16,52.8,38.9,27.3,27.1,22.3,15.0,79,55,23,30.37,30.20,11,3,18,0.00
2013-1-17,66.3,46.0,31.3,37.6,32.4,25.8,90,63,30,30.50,30.31,7,1,10,0.00
2013-1-18,65.6,47.6,30.1,38.6,33.3,27.8,94,63,29,30.52,30.30,11,2,14,0.00
2013-1-19,69.8,54.0,41.4,48.3,42.0,34.6,92,66,39,30.31,30.12,10,2,13,0.00
2013-1-20,75.1,54.5,35.9,47.9,41.8,33.8,94,67,28,30.24,30.05,8,1,8,0.00
2013-1-21,71.3,54.8,40.0,48.1,43.3,38.1,94,69,37,30.24,30.11,9,1,9,0.00
2013-1-22,72.2,55.4,40.2,51.9,45.1,37.5,91,71,46,30.30,30.16,16,2,17,0.00
2013-1-23,75.3,59.9,46.4,58.3,52.0,44.3,95,77,54,30.30,30.15,15,2,15,0.00
2013-1-24,82.9,66.5,53.6,62.7,57.0,50.7,95,75,41,30.21,30.04,13,3,18,0.00
2013-1-25,82.8,67.9,52.9,62.1,57.7,46.3,93,72,43,30.14,29.97,10,3,14,0.00
2013-1-26,63.1,55.5,50.0,57.9,51.3,45.4,93,86,77,30.17,30.05,11,2,11,0.00
2013-1-27,79.2,68.5,56.6,65.3,61.3,54.2,93,79,56,30.07,29.90,20,6,21,0.00
2013-1-28,76.9,72.3,69.1,66.8,65.5,64.5,88,80,67,29.98,29.81,28,7,28,0.00
2013-1-29,81.6,69.0,55.9,66.8,55.2,21.4,89,64,26,29.83,29.46,20,8,24,0.00
2013-1-30,57.7,50.6,35.9,30.3,22.2,14.1,62,35,18,30.22,29.77,28,7,32,0.00
2013-1-31,68.6,49.2,29.4,34.2,25.4,20.2,85,47,17,30.29,30.15,12,2,15,0.00
2013-2-1,70.3,54.7,37.7,43.5,35.3,27.2,80,51,28,30.35,30.14,23,3,23,0.00
2013-2-2,75.2,60.4,45.9,53.6,46.2,39.3,88,62,36,30.29,30.14,8,1,15,0.00
2013-2-3,70.6,57.7,41.4,48.4,40.5,31.1,87,57,25,30.33,29.98,15,3,17,0.00
2013-2-4,76.5,65.1,55.0,58.9,54.7,48.1,87,70,47,29.98,29.76,19,3,27,0.00
2013-2-5,78.7,61.9,44.9,50.5,46.6,42.8,98,62,30,29.98,29.83,10,1,10,0.00
2013-2-6,76.0,65.4,57.1,60.5,56.1,49.8,86,73,56,29.96,29.77,18,4,18,0.00
2013-2-7,83.5,68.5,59.8,61.1,52.8,36.9,89,63,22,30.08,29.81,19,4,19,0.00
2013-2-8,69.8,58.0,47.5,46.1,34.0,23.8,70,44,19,30.22,30.07,13,2,16,0.00
2013-2-9,69.9,58.8,51.6,65.8,53.6,32.4,94,84,46,30.08,29.73,20,6,23,0.00
2013-2-10,70.5,61.3,53.3,65.9,43.9,25.9,94,58,21,30.00,29.68,30,2,30,1.26
2013-2-11,60.4,55.1,51.7,49.6,46.3,39.6,87,73,48,30.10,29.96,20,2,20,0.02
2013-2-12,72.0,57.2,46.4,54.3,44.0,21.8,96,69,19,30.08,29.80,21,4,23,0.00
2013-2-13,62.8,48.5,38.7,37.9,34.8,30.5,83,62,30,30.17,30.02,10,3,12,0.00
2013-2-14,72.5,57.6,35.7,43.9,36.4,31.0,91,51,22,30.12,29.96,12,3,17,0.00
2013-2-15,60.8,49.8,38.6,40.5,35.4,22.2,84,59,36,30.40,30.05,13,2,16,0.00
2013-2-16,66.4,48.2,32.3,34.6,29.2,26.9,86,52,23,30.47,30.20,9,1,9,0.00
2013-2-17,70.1,56.3,38.5,51.3,38.2,30.3,80,53,29,30.20,29.92,27,5,32,0.00
2013-2-18,80.9,67.9,56.2,58.2,44.8,23.3,79,50,13,30.08,29.78,23,6,23,0.00
2013-2-19,66.3,56.8,41.4,36.8,32.2,26.7,79,42,24,30.26,30.07,13,4,20,0.00
2013-2-20,64.3,56.2,53.2,62.8,46.2,30.2,96,72,37,30.10,29.59,26,8,26,0.00
2013-2-21,75.7,65.8,49.0,64.8,41.1,16.7,95,49,12,29.83,29.53,26,6,27,0.00
2013-2-22,60.5,49.1,41.1,39.7,33.8,28.8,80,57,36,30.07,29.79,10,2,11,0.00
2013-2-23,72.0,52.4,36.0,38.4,33.1,28.2,83,52,20,30.08,29.86,10,2,17,0.00
2013-2-24,73.7,58.3,39.7,58.8,45.7,34.7,85,65,41,29.91,29.54,24,6,27,0.00
2013-2-25,63.8,61.0,57.3,59.8,48.9,30.6,89,67,36,29.64,29.51,32,5,32,0.00
2013-2-26,66.3,52.0,40.2,32.6,30.1,27.4,65,45,23,29.96,29.82,11,4,24,0.00
2013-2-27,61.0,51.8,44.3,34.1,28.2,21.3,63,42,25,30.23,29.84,9,4,22,0.00
2013-2-28,62.1,48.3,37.4,31.5,28.1,22.6,74,49,23,30.35,30.19,7,2,16,0.00
2013-3-1,68.1,57.3,31.9,33.7,26.0,18.1,88,34,16,30.30,30.12,11,3,21,0.00
2013-3-2,63.5,48.8,35.9,35.5,30.8,25.3,83,53,28,30.44,30.25,10,3,19,0.00
2013-3-3,76.5,58.9,40.6,43.4,33.6,28.8,71,43,21,30.25,29.86,13,5,25,0.00
2013-3-4,89.3,71.7,56.9,49.9,42.4,20.0,68,40,9,29.87,29.62,8,3,19,0.00
2013-3-5,72.4,68.7,57.2,48.6,43.9,34.1,56,41,26,29.96,29.69,12,4,24,0.00
2013-3-6,65.2,48.8,32.0,29.1,22.1,12.6,76,40,14,30.46,30.21,7,2,20,0.00
2013-3-7,71.7,57.9,42.3,54.1,40.8,23.1,74,54,40,30.23,30.05,11,6,26,0.00
2013-3-8,64.8,61.0,57.8,62.0,57.5,53.3,95,89,75,30.11,29.97,10,5,22,0.00
2013-3-9,73.5,67.6,62.7,65.8,62.8,58.9,91,85,76,29.96,29.57,14,8,28,0.55
2013-3-10,62.5,58.5,50.8,60.1,41.1,31.1,95,55,33,30.06,29.70,12,5,26,0.05
2013-3-11,68.5,51.6,36.0,37.0,29.1,19.6,88,49,20,30.19,29.99,6,2,16,0.00
2013-3-12,80.7,66.9,42.0,39.4,33.9,29.1,71,33,16,30.22,30.01,6,2,24,0.00
2013-3-13,75.7,62.2,44.7,40.2,36.8,32.3,73,40,25,30.41,30.22,8,3,15,0.00
2013-3-14,77.8,67.6,49.6,51.7,44.6,36.2,83,45,31,30.34,30.17,10,5,18,0.00
2013-3-15,80.1,67.9,56.6,54.6,50.2,42.3,86,57,34,30.20,29.94,10,2,19,0.00
2013-3-16,84.4,70.5,57.4,61.8,54.5,49.5,86,60,33,29.95,29.66,14,3,25,0.00
2013-3-17,85.5,73.3,66.7,62.8,60.0,58.3,78,65,41,29.76,29.58,6,1,11,0.00
2013-3-18,85.9,72.6,63.2,63.9,53.9,43.0,91,58,24,29.92,29.65,8,2,14,0.00
2013-3-19,84.4,66.2,48.2,63.3,52.3,44.5,87,63,40,30.01,29.77,6,0,11,0.00
2013-3-20,72.9,61.8,51.3,52.9,43.6,29.7,90,56,21,30.23,30.00,7,1,16,0.02
2013-3-21,76.6,64.9,55.2,59.2,51.6,40.1,81,62,53,30.00,29.56,6,1,14,0.00
2013-3-22,82.1,70.7,57.3,64.5,59.5,47.5,85,69,46,29.74,29.58,5,2,11,0.00
2013-3-23,57.2,54.7,52.5,47.8,47.0,46.4,81,75,70,29.74,29.71,4,2,11,0.00
2013-3-24,66.7,52.6,41.7,59.3,33.3,22.5,86,51,26,30.16,29.66,13,3,25,0.00
2013-3-25,60.4,48.4,36.5,27.6,20.9,14.8,57,36,18,30.39,30.15,2,0,9,0.00
2013-3-26,66.5,54.3,31.8,31.5,23.8,17.6,80,35,16,30.49,30.26,0,0,4,0.00
2013-3-27,69.0,57.5,44.0,47.9,38.0,23.2,66,49,33,30.29,30.11,5,0,8,0.00
2013-3-28,72.6,63.1,52.9,59.2,54.6,47.8,86,74,61,30.17,30.07,3,0,6,0.00
2013-3-29,77.0,68.4,56.5,59.0,56.7,53.9,93,68,48,30.13,30.00,0,0,0,0.00
2013-3-30,84.0,72.6,64.8,62.1,60.4,57.1,86,67,46,30.05,29.82,7,2,13,0.00
2013-3-31,76.7,71.3,64.8,69.1,64.3,59.7,92,79,63,29.94,29.82,5,1,11,0.17
2013-4-1,84.3,71.3,56.6,65.3,60.9,54.6,94,72,47,30.02,29.83,13,3,16,0.00
2013-4-2,76.8,68.7,64.8,67.9,63.4,61.9,94,84,65,29.94,29.80,11,0,29,1.37
2013-4-3,63.8,51.9,49.0,62.3,49.4,45.9,95,91,88,30.15,29.83,14,4,45,0.65
2013-4-4,61.6,51.2,46.3,45.5,42.8,38.9,89,74,53,30.24,30.11,6,3,17,0.00
2013-4-5,74.2,56.0,39.1,49.7,44.7,37.2,95,69,40,30.27,30.02,3,1,12,0.00
2013-4-6,79.5,66.0,52.3,58.7,53.4,46.7,87,65,48,30.03,29.80,5,2,20,0.00
2013-4-7,82.4,69.7,62.5,65.5,61.0,57.2,85,75,53,29.87,29.68,10,3,21,0.00
2013-4-8,75.0,70.3,67.5,67.4,64.4,61.2,89,82,77,29.77,29.62,11,5,24,0.00
2013-4-9,84.9,75.2,70.3,69.5,66.9,64.6,87,76,56,29.65,29.52,14,7,30,0.00
2013-4-10,74.9,52.4,44.2,68.8,44.2,39.7,88,74,60,29.97,29.58,14,5,27,0.60
2013-4-11,69.4,57.5,45.4,44.7,39.2,32.8,74,52,35,29.99,29.78,12,2,13,0.00
2013-4-12,80.3,62.8,44.4,51.1,44.8,40.8,91,58,25,29.98,29.81,17,2,17,0.00
2013-4-13,75.7,65.0,53.0,58.8,52.6,46.3,87,66,37,29.92,29.74,13,1,14,0.00
2013-4-14,90.0,69.1,56.8,64.7,58.7,54.2,93,73,35,29.78,29.52,19,2,19,0.00
2013-4-15,89.5,78.3,71.0,67.0,65.6,62.3,86,67,41,29.72,29.59,7,2,22,0.00
2013-4-16,87.1,80.6,69.2,69.6,67.3,63.4,84,65,52,29.83,29.72,8,0,21,0.00
2013-4-17,81.0,75.3,73.0,71.1,69.3,67.7,92,82,65,29.83,29.73,19,0,20,0.00
2013-4-18,76.5,58.9,50.1,71.6,44.7,35.9,89,61,42,30.10,29.57,15,3,21,0.09
2013-4-19,68.6,55.2,41.6,38.5,31.5,23.9,82,45,19,30.32,30.10,12,2,18,0.00
2013-4-20,72.2,58.6,41.1,46.1,34.2,28.0,84,45,21,30.22,29.95,4,0,5,0.00
2013-4-21,78.2,64.2,49.2,56.2,51.4,45.3,88,65,43,30.12,29.95,9,1,15,0.00
2013-4-22,82.4,70.7,57.1,61.5,58.0,54.0,91,66,45,30.06,29.81,1,0,4,0.00
2013-4-23,76.2,64.5,49.8,64.5,55.0,40.4,83,72,54,30.14,29.79,11,0,18,0.00
2013-4-24,65.0,53.8,44.2,41.2,36.8,32.3,78,54,33,30.29,30.14,11,2,16,0.00
2013-4-25,67.2,62.4,56.7,47.0,43.8,39.6,60,51,42,30.32,30.14,0,0,0,0.00
2013-4-26,79.7,68.5,59.6,68.4,61.4,42.5,95,79,44,30.14,29.96,0,0,1,0.00
2013-4-27,86.7,75.5,69.2,70.1,66.4,61.3,94,75,48,30.04,29.88,6,0,9,0.09
2013-4-28,85.9,75.4,64.6,64.8,61.7,56.0,92,65,39,29.98,29.78,17,1,17,0.00
2013-4-29,85.6,73.6,66.1,66.8,63.1,58.5,93,72,41,29.89,29.71,12,0,12,0.01
2013-4-30,84.7,73.3,64.3,66.9,63.5,61.6,93,73,50,29.80,29.67,6,0,7,0.00
2013-5-1,88.0,77.3,66.9,68.2,65.5,62.8,90,69,47,29.90,29.73,11,0,11,0.00
2013-5-2,76.7,54.0,47.6,65.5,46.8,36.3,91,77,57,30.37,29.83,11,2,24,0.35
2013-5-3,48.4,44.1,41.9,37.7,36.2,33.8,77,73,65,30.37,30.33,4,2,9,0.00
2013-5-4,81.7,61.7,40.1,49.7,38.8,30.6,88,51,16,30.07,29.85,2,0,11,0.00
2013-5-5,76.8,62.0,45.5,49.6,45.3,39.5,85,57,36,30.14,29.98,0,0,1,0.00
2013-5-6,75.8,67.5,50.1,52.9,49.7,46.5,89,55,39,30.12,29.96,1,0,5,0.00
2013-5-7,85.4,68.9,49.4,56.0,50.9,46.9,93,58,29,30.06,29.87,0,0,8,0.00
2013-5-8,81.2,73.2,63.7,65.3,61.4,53.7,86,68,50,29.96,29.81,0,0,0,0.00
2013-5-9,76.4,71.1,63.9,70.5,65.2,53.9,91,82,47,29.97,29.76,0,0,0,0.04
2013-5-10,87.5,70.3,61.9,67.6,62.3,57.8,94,78,42,30.01,29.79,5,1,15,0.44
2013-5-11,81.2,70.3,61.7,61.4,57.0,47.5,96,67,32,30.13,29.99,0,0,1,0.00
2013-5-12,81.5,68.2,55.2,57.1,53.3,46.7,92,63,32,30.25,30.09,0,0,1,0.00
2013-5-13,86.0,69.9,50.7,56.7,51.4,41.6,94,58,24,30.24,30.09,10,2,19,0.00
2013-5-14,85.8,74.6,61.6,67.0,59.7,53.7,84,62,35,30.17,29.93,0,0,1,0.00
2013-5-15,86.5,75.5,65.3,70.9,68.1,63.1,94,79,56,30.03,29.73,0,0,0,0.53
2013-5-16,75.6,72.9,67.7,70.1,68.3,64.6,93,86,82,29.82,29.76,0,0,0,0.05
2013-5-17,93.7,83.4,74.7,73.6,71.9,69.5,86,70,46,29.81,29.71,9,2,21,0.00
2013-5-18,93.7,82.5,72.3,71.8,68.5,64.6,88,65,44,29.84,29.71,0,0,0,0.00
2013-5-19,90.8,81.7,72.4,71.2,68.7,65.3,85,66,51,29.77,29.64,0,0,0,0.00
2013-5-20,92.7,84.4,73.2,71.2,69.7,67.1,86,63,47,29.77,29.61,0,0,0,0.00
2013-5-21,87.7,78.7,71.0,73.1,68.3,58.3,86,71,58,29.85,29.64,0,0,0,0.00
2013-5-22,92.3,76.9,56.9,71.6,60.2,54.1,92,60,30,29.90,29.74,8,2,19,0.00
2013-5-23,88.1,81.0,73.6,72.5,71.2,69.8,89,73,58,29.98,29.81,0,0,0,0.00
2013-5-24,79.6,73.4,68.3,73.4,69.3,65.8,95,87,76,30.08,29.94,0,0,1,0.94
2013-5-25,81.9,73.0,68.4,71.4,68.6,66.6,96,87,67,30.10,29.97,0,0,1,1.67
2013-5-26,85.9,77.8,72.0,72.9,70.5,68.0,92,79,64,30.04,29.90,0,0,0,0.00
2013-5-27,87.9,78.1,71.9,72.1,69.7,67.4,87,76,57,29.95,29.76,0,0,1,0.00
2013-5-28,87.8,79.7,73.0,71.6,68.9,66.9,83,70,54,29.84,29.69,0,0,2,0.00
2013-5-29,86.1,78.8,74.8,73.2,70.6,68.6,83,76,63,29.82,29.63,0,0,0,0.01
2013-5-30,88.8,80.7,75.9,73.8,71.4,69.5,83,74,60,29.78,29.68,0,0,0,0.00
2013-5-31,90.9,82.5,76.7,75.1,72.6,70.4,84,73,58,29.82,29.67,1,0,13,0.00
2013-6-1,93.6,84.2,76.9,75.5,72.6,70.7,83,69,51,29.85,29.70,7,1,14,0.00
2013-6-2,89.2,78.7,69.4,74.3,65.2,60.3,88,65,40,30.03,29.85,4,0,12,0.04
2013-6-3,91.9,78.4,63.3,68.7,63.7,58.4,93,64,33,29.96,29.77,7,1,11,0.00
2013-6-4,91.3,81.6,71.3,69.0,66.2,63.2,89,62,40,29.84,29.72,11,4,20,0.00
2013-6-5,92.4,81.4,70.6,69.8,67.5,64.7,88,65,42,29.84,29.68,7,1,13,0.00
2013-6-6,96.1,82.9,73.7,70.8,66.7,62.2,88,60,34,29.89,29.72,5,2,16,0.00
2013-6-7,86.0,77.2,69.4,65.4,60.7,54.2,84,59,34,29.98,29.82,4,1,11,0.00
2013-6-8,88.5,77.1,61.0,71.0,63.1,56.5,86,64,46,29.90,29.72,12,4,21,0.00
2013-6-9,89.7,79.8,67.9,73.3,70.1,64.9,94,74,51,29.94,29.78,7,2,16,0.19
2013-6-10,95.2,83.2,70.9,73.3,67.8,54.7,92,64,29,29.95,29.84,9,3,19,0.00
2013-6-11,92.4,82.5,74.1,72.5,70.3,63.9,91,69,46,29.98,29.87,12,4,22,0.00
2013-6-12,77.0,75.6,74.7,71.2,70.4,70.0,88,84,80,29.96,29.95,4,1,6,0.00
2013-6-13,94.9,83.5,74.3,73.9,70.1,64.7,91,65,47,30.01,29.88,13,3,25,0.00
2013-6-14,88.4,81.1,74.7,74.8,72.4,70.5,88,76,56,29.95,29.85,3,0,6,0.00
2013-6-15,89.7,82.3,77.3,74.7,72.6,68.8,89,74,53,29.94,29.84,0,0,0,0.00
2013-6-16,94.3,84.8,74.9,73.1,70.1,65.7,89,64,41,29.96,29.83,9,3,19,0.00
2013-6-17,95.3,85.6,77.0,73.9,70.8,68.3,84,63,42,29.95,29.77,9,4,21,0.00
2013-6-18,92.6,82.2,70.1,74.7,71.5,65.9,94,72,51,29.97,29.82,7,1,13,0.56
2013-6-19,94.6,85.0,74.9,72.9,70.4,67.9,89,64,44,29.91,29.83,9,3,19,0.00
2013-6-20,93.6,84.8,74.5,71.6,69.0,64.8,85,61,39,29.99,29.87,8,0,20,0.00
2013-6-21,94.0,85.0,75.4,73.0,68.5,61.2,87,61,35,30.01,29.89,1,0,4,0.00
2013-6-22,94.2,84.9,74.3,71.7,68.1,62.5,87,60,36,29.99,29.81,0,0,4,0.00
2013-6-23,94.0,84.6,74.8,72.0,66.8,57.7,87,58,31,29.92,29.81,3,0,7,0.00
2013-6-24,96.1,85.6,75.3,72.2,69.0,65.4,86,60,39,29.97,29.81,0,0,0,0.00
2013-6-25,96.4,86.5,77.9,71.7,69.0,64.0,81,58,35,29.94,29.78,0,0,0,0.00
2013-6-26,97.8,86.3,77.2,74.0,70.0,65.6,79,61,36,29.92,29.80,0,0,0,0.00
2013-6-27,101.1,87.6,76.0,71.8,65.5,56.7,84,53,24,29.97,29.82,7,2,14,0.00
2013-6-28,105.1,89.8,75.4,72.0,66.6,61.3,80,50,27,29.93,29.73,6,1,13,0.00
2013-6-29,106.4,92.1,75.0,73.1,65.4,56.1,78,45,20,29.82,29.67,5,1,14,0.00
2013-6-30,91.8,83.8,71.5,71.7,65.8,58.9,89,57,37,29.91,29.75,7,2,14,0.15
2013-7-1,89.1,80.4,70.6,66.8,57.1,51.5,70,46,29,29.98,29.84,7,2,21,0.00
2013-7-2,91.7,78.2,64.7,61.7,53.4,42.8,80,48,20,30.05,29.91,5,1,13,0.00
2013-7-3,94.8,81.6,61.6,59.5,51.1,46.2,78,39,20,30.00,29.84,5,1,16,0.00
2013-7-4,75.0,74.1,72.5,59.2,54.5,50.3,62,51,44,29.92,29.90,6,1,14,0.00
2013-7-5,95.9,84.7,68.4,68.8,60.4,54.4,82,47,25,29.94,29.77,8,4,20,0.00
2013-7-6,96.7,86.1,71.4,69.6,64.3,58.6,82,51,29,29.88,29.75,9,4,19,0.00
2013-7-7,97.6,85.4,74.7,72.8,69.4,64.5,86,61,35,29.92,29.80,14,5,28,0.00
2013-7-8,87.4,82.6,76.8,75.9,71.4,67.1,89,70,51,30.05,29.91,10,4,22,0.04
2013-7-9,96.9,85.7,74.3,72.8,69.8,63.3,90,63,36,30.10,29.93,11,5,20,0.00
2013-7-10,98.9,87.6,74.8,72.7,69.2,63.8,88,58,33,30.03,29.84,10,4,21,0.00
2013-7-11,92.9,83.3,76.8,73.4,70.5,68.4,81,66,45,29.95,29.90,7,2,15,0.00
2013-7-12,99.4,88.8,75.8,71.7,65.7,60.9,76,49,29,29.90,29.80,7,3,18,0.00
2013-7-13,102.4,89.9,74.6,70.0,64.5,58.6,83,47,25,29.92,29.76,5,2,17,0.00
2013-7-14,96.8,83.7,74.3,68.9,66.0,61.4,81,57,37,29.86,29.79,9,3,23,0.00
2013-7-15,74.6,71.7,67.9,72.8,69.7,66.1,96,93,85,29.99,29.84,8,3,14,2.38
2013-7-16,88.1,77.4,72.1,74.8,71.9,69.7,95,84,56,30.10,29.98,9,3,18,0.02
2013-7-17,87.4,75.7,70.4,74.3,71.4,67.5,96,87,59,30.14,30.06,22,2,37,1.13
2013-7-18,91.2,79.8,71.5,74.8,70.3,66.8,97,76,46,30.13,29.94,9,2,18,0.01
2013-7-19,92.7,78.8,70.9,73.5,69.6,64.6,94,76,41,30.04,29.92,5,1,11,0.00
2013-7-20,92.2,82.8,73.3,72.8,70.2,66.8,91,68,44,29.94,29.78,8,3,19,0.00
2013-7-21,93.9,81.4,74.4,75.4,72.3,70.7,91,76,48,29.90,29.80,7,3,22,0.05
2013-7-22,95.1,88.3,77.5,74.9,72.4,68.6,87,61,44,29.93,29.81,11,7,22,0.00
2013-7-23,95.3,86.1,78.4,74.8,70.9,63.9,83,63,38,29.94,29.80,11,6,23,0.00
2013-7-24,94.5,85.3,76.3,76.0,73.0,68.8,87,68,44,29.94,29.81,9,3,18,0.00
2013-7-25,97.4,86.6,76.0,74.3,70.4,65.0,87,61,38,29.97,29.88,9,2,18,0.00
2013-7-26,99.1,87.2,76.9,74.4,70.9,68.4,83,60,40,29.96,29.79,7,3,21,0.00
2013-7-27,89.8,81.6,75.8,75.3,71.5,68.0,89,73,50,29.94,29.83,5,2,12,0.00
2013-7-28,94.6,82.3,70.6,75.9,70.9,67.8,92,71,45,29.91,29.77,9,3,19,0.00
2013-7-29,97.1,86.8,78.0,74.3,70.0,62.0,84,60,32,29.95,29.85,11,7,23,0.00
2013-7-30,98.1,86.9,76.7,73.2,69.9,63.7,84,60,34,30.03,29.89,11,6,29,0.00
2013-7-31,101.4,88.5,75.2,71.7,66.4,61.1,86,52,29,30.03,29.86,9,2,18,0.00
2013-8-1,102.4,89.7,77.7,71.9,68.4,64.0,78,52,32,29.97,29.82,7,2,15,0.00
2013-8-2,99.3,89.2,77.7,68.5,65.8,58.3,70,48,29,29.92,29.80,11,4,21,0.00
2013-8-3,86.7,80.8,77.2,72.1,70.5,68.1,82,72,55,29.93,29.88,11,4,19,0.00
2013-8-8,101.6,89.4,76.2,73.7,67.5,59.7,84,53,26,29.83,29.69,8,3,20,0.00
2013-8-9,101.9,88.3,75.0,72.8,64.2,52.8,88,50,20,29.89,29.79,8,2,21,0.00
2013-8-10,102.5,88.5,75.9,73.0,68.8,59.3,83,55,31,29.99,29.85,9,2,24,0.00
2013-8-11,98.5,86.3,77.4,74.1,70.9,66.7,82,62,38,30.02,29.89,12,2,31,0.00
2013-8-12,96.7,86.0,74.6,72.5,69.1,65.8,87,60,38,30.02,29.86,6,2,16,0.00
2013-8-13,100.7,89.5,77.2,71.3,67.0,61.1,79,51,28,29.97,29.81,7,3,18,0.00
2013-8-14,102.5,86.3,75.0,74.2,70.7,64.4,92,62,34,29.95,29.83,7,2,23,0.52
2013-8-15,91.7,79.0,71.7,75.9,72.7,68.9,96,83,54,29.98,29.86,11,1,27,1.06
2013-8-16,92.2,78.7,71.9,73.3,69.3,62.6,96,76,38,30.02,29.88,9,1,22,0.01
2013-8-17,94.5,80.7,69.4,71.0,65.5,56.4,93,64,28,30.02,29.88,4,1,13,0.00
2013-8-18,95.1,80.9,66.8,67.1,63.4,57.0,90,60,29,30.02,29.91,5,1,14,0.00
2013-8-19,95.4,82.5,69.7,68.5,64.3,60.9,83,57,33,30.01,29.85,5,1,13,0.00
2013-8-20,95.0,83.3,69.9,68.8,64.6,58.0,87,56,31,29.98,29.86,7,2,15,0.00
2013-8-21,95.1,83.1,72.6,73.2,69.3,66.5,88,66,40,30.03,29.89,9,2,20,0.00
2013-8-22,96.1,85.6,73.6,74.3,69.7,62.2,88,61,35,30.04,29.85,6,2,15,0.00
2013-8-23,97.4,86.5,75.1,73.9,68.8,64.6,85,59,36,29.98,29.83,6,1,14,0.00
2013-8-24,97.9,85.6,75.1,74.8,69.8,65.5,86,61,41,30.00,29.87,6,1,21,0.14
2013-8-25,94.5,85.4,75.4,73.4,70.3,66.7,87,63,43,30.04,29.94,6,2,18,0.00
2013-8-26,92.4,81.5,75.2,72.0,70.5,68.1,85,71,47,30.08,29.96,8,3,18,0.00
2013-8-27,84.8,77.3,74.0,76.0,71.2,65.9,91,82,63,30.08,29.97,10,2,21,0.15
2013-8-28,95.1,82.7,71.5,73.9,69.4,66.2,95,68,42,30.07,29.94,5,1,12,0.00
2013-8-29,99.2,86.2,72.6,72.5,67.9,62.7,91,58,31,30.05,29.89,5,1,14,0.00
2013-8-30,102.4,87.3,73.6,71.5,67.4,63.1,86,56,30,29.98,29.80,5,1,11,0.00
2013-8-31,101.9,89.2,75.3,71.8,67.8,63.7,81,52,31,29.88,29.73,7,2,13,0.00
2013-9-1,100.6,88.4,76.6,73.0,68.1,64.8,77,53,35,29.85,29.73,7,2,14,0.00
2013-9-2,97.6,86.8,77.3,72.9,69.7,65.1,81,58,36,29.92,29.77,6,2,15,0.00
2013-9-3,100.9,84.3,73.6,76.5,70.9,64.3,87,67,32,29.95,29.82,7,1,20,0.06
2013-9-4,99.0,83.6,75.0,74.8,71.2,67.4,90,68,38,29.99,29.86,15,2,32,0.16
2013-9-5,96.1,84.4,74.1,73.4,69.8,65.8,88,64,38,30.06,29.92,9,2,17,0.00
2013-9-6,95.7,84.9,73.4,74.2,69.7,65.5,91,63,38,30.04,29.88,7,2,15,0.00
2013-9-7,96.6,82.6,73.6,74.7,70.2,65.4,90,69,37,29.98,29.83,17,2,29,0.00
2013-9-8,93.6,81.4,72.1,73.9,70.2,66.9,93,71,43,29.94,29.81,11,3,23,0.00
2013-9-9,90.1,78.8,72.2,72.6,70.0,67.6,91,76,48,29.95,29.85,15,3,26,0.04
2013-9-10,91.9,79.1,71.6,72.4,70.5,67.3,94,77,45,30.02,29.91,14,3,28,0.00
2013-9-11,93.6,83.7,74.2,73.6,67.7,60.4,90,62,34,30.06,29.92,8,3,18,0.00
2013-9-12,94.4,82.8,70.7,73.1,66.9,60.6,90,62,34,30.02,29.85,7,1,17,0.00
2013-9-13,95.1,81.6,71.4,71.8,67.2,61.0,89,65,33,29.92,29.80,6,1,14,0.00
2013-9-14,96.0,84.9,71.7,70.1,65.7,61.0,84,55,35,29.89,29.77,9,3,18,0.00
2013-9-15,91.9,83.0,73.8,72.5,68.9,65.5,86,64,42,29.97,29.86,7,2,17,0.00
2013-9-16,92.9,81.4,72.9,73.4,70.9,68.8,89,72,47,30.02,29.90,7,1,20,0.01
2013-9-17,91.0,81.7,74.4,74.5,71.2,67.8,93,73,47,30.02,29.87,6,2,15,0.00
2013-9-18,93.1,85.7,73.0,73.6,68.3,64.0,91,58,40,29.97,29.81,8,4,19,0.00
2013-9-19,92.8,79.8,74.4,75.4,72.5,70.1,94,79,50,29.91,29.76,15,2,28,0.20
2013-9-20,76.7,74.2,71.0,75.1,72.4,67.8,96,94,89,29.85,29.75,6,1,15,2.48
2013-9-21,85.3,73.8,62.5,68.1,60.1,49.5,89,66,32,29.93,29.81,7,3,17,0.00
2013-9-22,85.2,70.1,57.0,59.4,54.1,48.3,92,62,29,29.90,29.75,4,1,11,0.00
2013-9-23,89.2,73.0,57.3,60.5,56.3,49.7,94,61,27,29.83,29.70,5,1,10,0.00
2013-9-24,94.7,77.0,61.5,66.5,60.9,57.6,92,62,31,29.89,29.79,4,0,10,0.00
2013-9-25,94.1,79.6,65.2,68.6,63.5,60.4,92,62,34,29.86,29.71,6,2,14,0.00
2013-9-26,90.5,79.4,69.0,65.8,58.9,53.8,71,51,32,29.84,29.75,9,3,19,0.00
2013-9-27,84.3,78.0,73.4,73.9,72.1,70.4,91,82,71,29.85,29.80,8,4,17,0.00
2013-9-28,87.1,80.3,72.8,76.1,74.0,70.7,94,82,64,29.96,29.80,8,4,19,1.81
2013-9-29,78.5,69.0,63.5,69.3,63.9,60.1,95,85,55,30.05,29.90,4,2,10,0.31
2013-9-30,87.0,72.1,58.9,65.9,60.0,56.9,96,70,37,29.94,29.76,3,1,12,0.00
2013-10-1,88.7,79.5,65.5,74.5,69.0,60.7,93,72,50,29.87,29.78,8,3,18,0.00
2013-10-2,90.0,81.1,74.3,74.0,71.1,66.9,91,73,49,29.90,29.78,8,4,17,0.00
2013-10-3,89.7,81.5,73.3,73.4,70.6,68.2,92,71,51,29.89,29.76,8,4,18,0.00
2013-10-4,89.9,80.9,73.4,72.2,69.7,68.2,87,70,50,29.86,29.76,9,5,23,0.00
2013-10-5,85.9,74.4,62.8,71.9,62.4,42.6,90,67,46,30.06,29.82,9,3,20,0.00
2013-10-6,81.0,65.1,52.7,54.0,47.6,34.3,89,60,20,30.14,30.03,6,2,16,0.04
2013-10-7,86.5,65.8,48.9,53.8,47.8,39.9,90,59,21,30.17,30.00,4,0,11,0.00
2013-10-8,84.2,69.0,51.8,57.1,50.9,46.2,92,58,27,30.07,29.92,6,2,14,0.00
2013-10-9,83.0,69.9,57.9,61.7,56.4,50.6,86,64,42,30.03,29.90,8,2,16,0.00
2013-10-10,84.6,73.4,63.5,67.2,63.4,58.9,93,73,50,30.00,29.82,10,4,21,0.00
2013-10-11,87.5,79.9,71.8,73.4,70.3,65.5,85,73,56,29.90,29.77,9,4,18,0.00
2013-10-12,90.5,81.4,74.7,75.5,72.4,69.6,94,75,53,29.97,29.83,7,2,15,0.00
2013-10-13,75.4,70.9,66.3,71.3,68.4,64.5,95,92,83,30.13,29.96,7,2,19,1.19
2013-10-14,81.4,74.9,71.4,73.5,71.3,69.9,96,89,70,30.06,29.86,7,3,13,0.03
2013-10-15,81.3,75.6,72.4,71.3,70.3,69.4,91,84,68,29.93,29.83,7,2,14,0.00
2013-10-16,62.9,58.5,53.5,58.6,55.2,51.7,95,89,80,30.08,29.98,4,2,10,1.21
2013-10-17,74.9,61.7,50.3,55.3,50.3,44.8,91,69,39,30.14,29.95,1,0,9,0.00
2013-10-18,70.7,63.6,56.4,63.6,58.4,52.1,89,83,76,30.01,29.86,7,1,11,0.00
2013-10-19,68.3,56.5,47.0,56.1,44.4,38.0,88,67,36,30.22,30.01,9,3,17,0.00
2013-10-20,74.0,58.4,43.8,53.0,47.6,41.8,94,70,44,30.10,29.88,9,2,18,0.00
2013-10-21,79.5,66.9,58.0,67.1,58.9,50.7,90,76,62,30.08,29.87,6,2,14,0.00
2013-10-22,77.2,62.5,51.5,54.5,47.3,37.8,88,63,26,30.17,30.05,4,2,11,0.00
2013-10-23,83.1,63.8,47.2,51.1,46.7,41.5,94,61,24,30.17,30.05,4,1,12,0.00
2013-10-24,81.7,60.9,48.3,53.4,48.4,44.9,92,69,29,30.21,30.10,5,1,11,0.00
2013-10-25,74.4,74.4,74.4,59.6,59.6,59.6,60,60,60,30.26,30.26,6,6,6,0.00
2013-10-26,74.9,67.1,64.3,65.3,62.3,60.9,90,85,72,30.19,30.12,8,4,18,0.00
2013-10-27,72.1,66.7,62.8,64.0,61.9,60.1,93,85,71,30.10,29.97,2,1,8,0.01
2013-10-28,81.7,73.0,64.0,68.6,66.2,60.7,94,80,59,30.05,29.93,9,5,19,0.00
2013-10-29,82.9,77.3,72.1,70.4,68.7,66.6,88,75,62,30.02,29.91,9,6,22,0.00
2013-10-30,81.3,75.5,71.9,72.8,71.0,68.3,95,86,73,29.98,29.75,7,2,17,0.03
2013-10-31,79.4,70.7,53.1,71.5,53.2,31.9,95,62,18,29.87,29.69,10,2,22,0.07
2013-11-1,82.3,61.6,46.2,52.9,44.6,35.8,94,62,20,30.09,29.80,10,2,19,0.00
2013-11-2,74.0,60.4,49.0,47.4,41.3,32.2,83,54,22,30.30,30.09,6,2,13,0.00
2013-11-3,69.2,56.8,42.1,53.4,42.7,38.3,92,63,35,30.22,29.99,10,3,23,0.00
2013-11-4,63.6,62.0,59.5,61.8,58.2,53.4,94,88,71,30.03,29.93,10,2,22,0.05
2013-11-5,77.9,68.2,63.7,68.5,64.7,62.0,96,89,68,29.99,29.85,4,1,9,0.01
2013-11-6,70.3,59.8,53.6,68.2,54.4,48.1,95,83,59,30.21,29.94,8,4,16,0.12
2013-11-7,67.3,55.0,40.1,47.8,42.1,34.8,92,65,32,30.49,30.34,3,0,11,0.00
2013-11-8,64.7,56.1,48.3,47.4,43.3,36.1,91,65,36,30.39,30.14,7,1,15,0.00
2013-11-9,67.4,61.6,55.9,58.3,53.1,45.5,87,74,66,30.17,30.08,5,0,10,0.00
2013-11-10,70.7,63.3,58.2,59.1,57.5,55.0,90,82,66,30.29,30.15,4,0,9,0.00
2013-11-11,76.9,61.6,50.4,57.6,54.0,48.5,96,79,49,30.27,30.13,1,0,6,0.00
2013-11-12,58.4,53.4,49.5,55.4,49.2,42.3,95,86,67,30.55,30.23,8,2,19,0.00
2013-11-13,49.7,40.3,32.2,28.3,26.5,24.4,74,59,43,30.68,30.58,3,1,8,0.00
2013-11-14,63.3,52.9,33.0,46.4,37.3,27.9,88,58,31,30.41,30.03,2,0,6,0.00
2013-11-15,79.1,63.7,50.6,58.7,53.8,46.2,93,72,48,30.04,29.81,5,0,8,0.00
2013-11-16,77.9,71.2,60.7,69.2,64.2,56.1,88,79,67,29.87,29.69,0,0,0,0.00
2013-11-17,89.0,74.4,57.1,70.2,61.8,49.2,95,70,26,29.92,29.72,5,0,13,0.00
2013-11-18,74.6,63.4,51.8,58.8,52.7,47.9,93,70,52,30.09,29.92,2,0,6,0.00
2013-11-19,71.5,61.4,49.7,52.4,48.1,43.7,92,64,40,30.14,29.96,0,0,1,0.00
2013-11-20,73.8,64.6,58.8,64.0,57.5,48.6,94,78,69,29.99,29.84,0,0,0,0.00
2013-11-21,78.3,71.2,65.8,71.4,67.9,64.0,96,90,76,30.03,29.89,2,0,8,0.97
2013-11-22,66.3,40.7,35.1,64.8,38.2,32.7,95,91,86,30.44,30.02,8,6,20,2.56
2013-11-23,41.6,38.5,36.0,38.2,35.4,32.7,92,88,83,30.52,30.42,6,4,14,0.01
2013-11-24,41.9,38.1,34.2,36.8,32.6,29.4,93,81,67,30.53,30.33,5,2,13,0.15
2013-11-25,41.6,37.9,34.2,37.4,34.9,32.1,94,89,78,30.36,30.11,7,2,17,0.29
2013-11-26,53.3,44.8,38.0,36.5,32.4,28.1,85,63,42,30.39,30.17,10,5,21,0.01
2013-11-27,41.2,40.4,39.0,31.0,29.7,27.8,69,65,62,30.40,30.37,5,2,11,0.00
2013-11-28,55.4,40.9,32.5,34.3,31.2,29.3,90,71,40,30.45,30.34,3,1,11,0.00
2013-11-29,60.3,46.4,31.4,49.7,41.1,29.1,95,83,64,30.52,30.35,5,2,13,0.00
2013-11-30,65.2,57.0,51.7,56.6,51.0,46.1,92,81,72,30.36,30.15,5,2,11,0.00
2013-12-1,70.0,61.8,54.0,59.3,56.3,52.3,95,83,66,30.18,29.92,6,1,15,0.00
2013-12-2,83.1,66.6,47.7,56.3,46.4,38.5,96,54,21,29.92,29.63,6,1,16,0.00
2013-12-3,85.7,64.0,41.0,50.1,43.1,39.2,98,57,20,29.69,29.55,4,0,9,0.00
2013-12-4,79.6,66.1,48.6,65.0,59.0,45.7,94,79,56,29.75,29.63,7,2,14,0.00
2013-12-5,62.5,46.6,36.9,60.7,39.1,25.1,95,75,60,30.09,29.74,9,4,18,0.00
2013-12-6,33.9,31.8,28.1,31.3,26.4,21.3,93,80,74,30.50,30.10,9,5,19,0.00
2013-12-7,29.6,27.5,25.1,23.7,20.8,17.6,81,76,72,30.52,30.31,7,4,15,0.00
2013-12-8,49.1,35.7,28.3,39.3,31.0,22.9,92,83,69,30.31,30.03,3,1,7,0.00
2013-12-9,39.2,36.8,33.7,38.0,35.2,31.8,96,94,90,30.20,30.07,4,1,12,0.03
2013-12-10,47.5,35.7,26.7,29.8,24.8,21.9,87,67,38,30.55,30.35,5,2,15,0.00
2013-12-11,56.8,41.2,28.0,33.4,29.2,25.2,91,65,39,30.58,30.34,4,1,9,0.00
2013-12-12,54.3,45.6,30.5,37.4,33.7,27.3,89,64,46,30.61,30.29,5,1,8,0.00
2013-12-13,47.3,44.9,42.7,45.9,40.8,35.2,96,86,69,30.31,29.89,5,1,9,0.16
2013-12-14,51.9,43.5,34.9,41.8,36.6,31.4,97,78,52,30.37,29.86,10,3,21,0.02
2013-12-15,62.7,44.4,28.8,34.9,31.1,26.0,92,64,29,30.42,30.26,4,1,8,0.00
2013-12-16,69.8,48.2,30.5,38.5,34.3,28.2,94,64,27,30.30,30.16,5,1,12,0.00
2013-12-17,71.7,49.0,32.6,41.8,36.2,30.3,94,67,27,30.33,30.21,4,0,7,0.00
2013-12-18,69.3,52.0,34.6,54.5,43.9,32.5,94,76,51,30.28,30.03,8,2,21,0.00
2013-12-19,71.9,64.7,56.6,61.3,57.7,51.0,89,79,64,30.03,29.76,11,4,26,0.00
2013-12-20,73.0,68.5,64.9,66.9,63.2,56.1,91,83,70,29.81,29.58,10,4,22,0.00
2013-12-21,68.5,50.8,41.5,54.3,43.2,37.4,100,78,33,29.81,29.55,10,2,22,0.52
2013-12-22,51.0,44.0,36.4,40.4,35.1,28.2,93,72,50,30.40,29.81,10,3,21,0.00
2013-12-23,57.0,39.9,28.9,33.1,28.9,23.3,91,69,29,30.54,30.40,4,1,8,0.00
2013-12-24,59.4,43.1,29.7,38.9,30.2,27.4,93,65,32,30.54,30.26,9,2,22,0.00
2013-12-25,59.4,47.2,36.4,48.7,40.7,31.4,95,79,63,30.42,30.24,6,1,12,0.00
2013-12-26,55.4,44.3,36.0,41.5,37.2,32.8,89,77,54,30.45,30.32,3,1,7,0.00
2013-12-27,58.4,49.3,41.3,43.8,40.6,34.1,91,74,41,30.44,30.32,2,0,5,0.00
2013-12-28,62.0,50.7,39.6,48.0,43.4,37.4,94,78,54,30.32,30.00,7,1,15,0.00
2013-12-29,57.4,48.0,32.0,49.0,42.6,29.3,91,82,71,30.32,29.95,11,3,20,0.00
2013-12-30,46.7,38.0,31.7,32.8,27.1,23.3,88,66,45,30.41,30.25,7,2,16,0.00
2013-12-31,56.7,43.0,33.3,35.5,32.4,30.4,90,68,39,30.48,30.24,7,1,13,0.00
2014-1-1,69.0,51.4,36.7,54.4,42.6,30.5,90,73,58,30.24,29.95,11,3,26,0.00
2014-1-2,52.5,41.3,30.6,43.7,27.7,24.3,84,60,34,30.46,30.13,10,4,18,0.00